Harrisburg International Airport Harrisburg US
ICAO: KMDT
IATA: MDT
Category: Medium
Scheduled Services: Yes

Elevation: 310 ft
TransAlt. 18000 ft.

Airport Communications:
APP/DEP:118.25
ATIS:118.8
GND:121.7
ANG OPS:39.51
TWR:124.8

KMDT Zoom In..

Runways:

(A) RW 13 length 10002 ft width 200 ft
ILS 110.90 / hdg 128

(B) RW 31 length 10002 ft width 200 ft
ILS 110.90 / hdg 308

Location; KMDT
Day. 23 / Time. 09.51 Zulu
* Altimeter: 29.93
* Temperature: 21° c. 69.8°f.
* Wind from: 100° Speed 05 kn.
Dewpoint: 21° c.
Visibility: 10 Statute Miles.
Clouds: Few 500 ft.
Clouds: Broken 1500 ft.
Clouds: Overcast 2000 ft.

KMDT 230951Z 10005KT 10SM FEW005 BKN015 OVC020 21/21 A2993 RMK AO2 RAB02E45 P0032


Wind From 100°
Speed 05 kn.

 
 
jpsmedia.com for Web Design worldairports.se 2018   terms of use